Aérodrome :
LOGIN :

S'inscrire | Disclaimer

   EN    FR    IT 

 










Légende :    VFR   VFR Marginal   IFR   IFR Intensif   IFR Très Intensif
Visi : 
Plafond : 
>= 8 km
>= 3000ft
5 à 8 km
1000 à 3000 ft
1500m à 5 km
500 à 1000 ft
800 à 1500m
200 à 500 ft
< 800m
< 200 ft
Symboles :   Orages  Brouillard  Fortes neiges  Fortes précipitations  Vent > 20 kt
SIGMETs :   Divers  Orages  Givrage  Turbulence  Onde Orograph.  Cendres Volcan.






- Altitude de l'aérodrome : 13 ft
- Code IATA : SNR


LFRZ - St-Nazaire

DERNIER METAR :
  • 140100Z AUTO VRB04KT 9999 -DZ FEW024/// BKN030/// BKN040/// ///TCU 06/05 Q0994 TEMPO 4000 SHRA

METARs EXPIRÉS :
  • 140030Z AUTO 22001KT 9999 BKN036/// BKN046/// OVC120/// ///CB 05/04 Q0994 TEMPO 4000 SHRA
  • 140000Z AUTO 23003KT 9999 BKN034/// BKN140/// OVC160/// ///CB 05/04 Q0994 TEMPO 4000 SHRA
  • 132330Z AUTO 26004KT 9999 ///CB 05/03 Q0994 TEMPO 4000 SHRA
  • 132300Z AUTO 26009KT 9999 ///TCU 06/04 Q0994 TEMPO 29015G25KT 4000 SHRA BKN020TCU SCT030CB
  • 132230Z AUTO 25011KT 9999 FEW017/// BKN036/// BKN045/// ///CB 06/04 Q0994 TEMPO 29015G25KT 4000 SHRA

TAF TAF LFRZ
Valide du 14 à 00h jusqu'au 15 à 00h UTC


132300Z 1400/1424 VRB05KT 9999 SCT030
TEMPO 1400/1408 4000 SHRA BKN025TCU
PROB30
TEMPO 1422/1424 3000 BR



MET'MAP, la Météo Aéronautique d'un coup d'oeil ! - Copyright ORBIFLY Décembre 2007 - Disclaimer

ORBIFLY MET'MAP TEAM :

Programmation & Développement : Alexandra Zaïnal
Conception & Développement : Baudouin d'Aumeries
Co-Programmation & Développement : Marc-Olivier Méhu
Soutien technique & logistique : Manuel Goepfert

Contact : metmap@orbifly.com




SOURCES & CREDITS :

   NOAA